Time;durP1;ratioP1;P1;durP2;ratioP2;P2;SDS_P1;SDS_P2;PMS_P1;PMS_P2;Temp;Humidity;BMP_temperature;BMP_pressure;BME280_temperature;BME280_humidity;BME280_pressure;Samples;Min_cycle;Max_cycle;Signal;HPM_P1;HPM_P2
2021/05/13 00:01:29;;;;;;;0.98;0.38;;;24.70;43.70;;;;;;5045674;28;20132;-59
2021/05/13 00:03:56;;;;;;;0.15;0.15;;;24.70;43.70;;;;;;5045188;28;20048;-60
2021/05/13 00:06:23;;;;;;;0.47;0.40;;;24.70;43.70;;;;;;5045733;28;20056;-59
2021/05/13 00:08:57;;;;;;;0.47;0.28;;;24.70;43.70;;;;;;5044718;28;20492;-59
2021/05/13 00:11:30;;;;;;;0.40;0.30;;;24.60;43.60;;;;;;5044921;28;20083;-59
2021/05/13 00:13:58;;;;;;;0.47;0.30;;;24.60;43.60;;;;;;5045009;28;20045;-60
2021/05/13 00:16:31;;;;;;;0.30;0.30;;;24.60;43.70;;;;;;5044528;28;20114;-60
2021/05/13 00:19:01;;;;;;;1.65;0.20;;;24.60;43.60;;;;;;5044965;28;20049;-60
2021/05/13 00:21:28;;;;;;;0.20;0.20;;;24.60;43.60;;;;;;5044964;28;20520;-59
2021/05/13 00:23:55;;;;;;;0.13;0.13;;;24.60;43.70;;;;;;5044607;28;20078;-59
2021/05/13 00:26:36;;;;;;;0.40;0.40;;;24.60;43.70;;;;;;5045640;28;20563;-59
2021/05/13 00:29:06;;;;;;;0.10;0.10;;;24.60;43.70;;;;;;5044478;28;20124;-59
2021/05/13 00:31:33;;;;;;;0.60;0.20;;;24.60;43.70;;;;;;5045460;28;20076;-59
2021/05/13 00:34:01;;;;;;;0.30;0.30;;;24.60;43.60;;;;;;5044664;28;20049;-60
2021/05/13 00:36:29;;;;;;;0.80;0.20;;;24.60;43.60;;;;;;5045315;28;20288;-60
2021/05/13 00:39:07;;;;;;;1.15;0.28;;;24.60;43.60;;;;;;5044427;28;20075;-60
2021/05/13 00:41:34;;;;;;;0.30;0.30;;;24.60;43.60;;;;;;5044255;28;20052;-59
2021/05/13 00:44:02;;;;;;;0.20;0.20;;;24.60;43.60;;;;;;5044384;28;20155;-59
2021/05/13 00:46:30;;;;;;;1.33;0.10;;;24.60;43.60;;;;;;5044509;28;20048;-59
2021/05/13 00:49:07;;;;;;;0.15;0.15;;;24.60;43.60;;;;;;5046868;28;20051;-62
2021/05/13 00:51:38;;;;;;;0.35;0.35;;;24.60;43.60;;;;;;5046628;28;20585;-60
2021/05/13 00:54:05;;;;;;;0.10;0.10;;;24.60;43.60;;;;;;5043050;28;20445;-60
2021/05/13 00:56:33;;;;;;;0.90;0.20;;;24.60;43.60;;;;;;5045377;28;20140;-60
2021/05/13 00:59:08;;;;;;;0.35;0.20;;;24.60;43.60;;;;;;5044501;28;20403;-59
2021/05/13 01:01:48;;;;;;;0.22;0.20;;;24.60;43.60;;;;;;5064203;28;20058;-59
2021/05/13 01:04:20;;;;;;;0.32;0.30;;;24.50;43.60;;;;;;5061845;28;20568;-59
2021/05/13 01:06:49;;;;;;;0.20;0.20;;;24.60;43.60;;;;;;5064653;28;20048;-59
2021/05/13 01:09:23;;;;;;;0.30;0.20;;;24.60;43.60;;;;;;5064555;28;20359;-59
2021/05/13 01:12:00;;;;;;;0.70;0.30;;;24.50;43.60;;;;;;5064500;28;20308;-60
2021/05/13 01:14:40;;;;;;;0.43;0.20;;;24.50;43.60;;;;;;5064387;28;20048;-60
2021/05/13 01:17:21;;;;;;;0.30;0.30;;;24.50;43.60;;;;;;5064148;28;20128;-59
2021/05/13 01:19:55;;;;;;;0.20;0.20;;;24.50;43.60;;;;;;5064688;28;20058;-63
2021/05/13 01:22:24;;;;;;;0.10;0.10;;;24.50;43.60;;;;;;5067396;28;20456;-63
2021/05/13 01:24:53;;;;;;;0.30;0.30;;;24.50;43.60;;;;;;5064255;28;20457;-60
2021/05/13 01:27:20;;;;;;;0.20;0.20;;;24.50;43.60;;;;;;5077560;28;20384;-60
2021/05/13 01:29:49;;;;;;;0.10;0.10;;;24.50;43.60;;;;;;5064162;28;20553;-60
2021/05/13 01:32:18;;;;;;;0.20;0.20;;;24.50;43.60;;;;;;5064678;28;20095;-60
2021/05/13 01:34:46;;;;;;;0.93;0.40;;;24.60;43.60;;;;;;5064363;28;20361;-60
2021/05/13 01:37:14;;;;;;;0.17;0.17;;;24.50;43.60;;;;;;5067943;28;20551;-60
2021/05/13 01:39:41;;;;;;;0.45;0.20;;;24.50;43.50;;;;;;5067554;28;20138;-59
2021/05/13 01:42:11;;;;;;;0.20;0.20;;;24.50;43.50;;;;;;5067720;28;20055;-60
2021/05/13 01:44:44;;;;;;;0.20;0.20;;;24.50;43.60;;;;;;5068081;28;20255;-60
2021/05/13 01:47:11;;;;;;;0.20;0.20;;;24.50;43.60;;;;;;5067756;28;20126;-60
2021/05/13 01:49:39;;;;;;;0.30;0.30;;;24.50;43.60;;;;;;5068129;28;20052;-60
2021/05/13 01:52:06;;;;;;;0.30;0.30;;;24.50;43.60;;;;;;5068669;28;20056;-62
2021/05/13 01:54:33;;;;;;;0.20;0.20;;;24.50;43.60;;;;;;5069845;28;20136;-62
2021/05/13 01:57:05;;;;;;;0.20;0.20;;;24.50;43.60;;;;;;5068202;28;20127;-59
2021/05/13 01:59:32;;;;;;;0.20;0.20;;;24.50;44.20;;;;;;5057182;28;20139;-60
2021/05/13 02:02:00;;;;;;;1.75;0.30;;;24.50;43.60;;;;;;5048781;28;20453;-60
2021/05/13 02:04:29;;;;;;;0.10;0.10;;;24.50;43.60;;;;;;5047543;28;20045;-60
2021/05/13 02:06:56;;;;;;;0.20;0.20;;;24.50;43.60;;;;;;5047576;28;20224;-60
2021/05/13 02:09:24;;;;;;;0.50;0.17;;;24.50;43.60;;;;;;5047510;28;20045;-60
2021/05/13 02:11:51;;;;;;;0.60;0.25;;;24.50;43.60;;;;;;5047427;28;20048;-60
2021/05/13 02:14:18;;;;;;;0.10;0.10;;;24.50;43.60;;;;;;5047540;28;20574;-59
2021/05/13 02:16:46;;;;;;;0.30;0.30;;;24.50;43.60;;;;;;5047059;28;20525;-60
2021/05/13 02:19:13;;;;;;;0.28;0.20;;;24.50;43.60;;;;;;5047352;28;20052;-59
2021/05/13 02:21:40;;;;;;;0.20;0.20;;;24.50;43.50;;;;;;5047067;28;20045;-60
2021/05/13 02:24:08;;;;;;;0.45;0.30;;;24.50;43.60;;;;;;5047343;28;20045;-60
2021/05/13 02:26:35;;;;;;;0.15;0.15;;;24.50;43.60;;;;;;5049406;28;20132;-60
2021/05/13 02:29:03;;;;;;;0.20;0.20;;;24.50;43.60;;;;;;5053663;28;20077;-60
2021/05/13 02:31:30;;;;;;;0.65;0.38;;;24.50;43.60;;;;;;5044733;28;20045;-60
2021/05/13 02:33:57;;;;;;;0.10;0.10;;;24.50;43.50;;;;;;5048639;28;20513;-59
2021/05/13 02:36:24;;;;;;;0.20;0.20;;;24.50;43.50;;;;;;5055613;28;20107;-60
2021/05/13 02:38:51;;;;;;;0.20;0.20;;;24.50;43.50;;;;;;5049569;28;20126;-60
2021/05/13 02:41:18;;;;;;;0.50;0.50;;;24.50;43.50;;;;;;5048155;28;20076;-59
2021/05/13 02:43:45;;;;;;;0.20;0.20;;;24.50;43.60;;;;;;5048771;28;20056;-59
2021/05/13 02:46:13;;;;;;;0.32;0.20;;;24.50;43.50;;;;;;5049817;28;20045;-60
2021/05/13 02:48:40;;;;;;;0.22;0.22;;;24.50;43.60;;;;;;5048086;28;20053;-60
2021/05/13 02:51:07;;;;;;;0.20;0.20;;;24.50;43.60;;;;;;5050188;28;20544;-60
2021/05/13 02:53:34;;;;;;;0.30;0.30;;;24.50;43.60;;;;;;5049819;28;20128;-59
2021/05/13 02:56:03;;;;;;;0.32;0.32;;;24.50;43.60;;;;;;5046238;28;20045;-60
2021/05/13 02:58:30;;;;;;;0.60;0.38;;;24.40;43.50;;;;;;5044879;28;20045;-60
2021/05/13 03:01:11;;;;;;;0.20;0.20;;;24.40;43.50;;;;;;5037206;28;20063;-60
2021/05/13 03:03:38;;;;;;;0.30;0.30;;;24.50;43.60;;;;;;5062162;28;20364;-60
2021/05/13 03:06:06;;;;;;;0.32;0.32;;;24.40;43.50;;;;;;5058106;28;20144;-60
2021/05/13 03:08:33;;;;;;;0.45;0.40;;;24.40;43.50;;;;;;5059661;28;20049;-60
2021/05/13 03:11:00;;;;;;;0.13;0.13;;;24.50;43.60;;;;;;5077860;28;20048;-60
2021/05/13 03:13:28;;;;;;;1.08;0.50;;;24.50;43.50;;;;;;5072776;28;20161;-59
2021/05/13 03:15:55;;;;;;;0.28;0.28;;;24.50;43.50;;;;;;5064039;28;20430;-59
2021/05/13 03:18:25;;;;;;;0.30;0.30;;;24.50;43.50;;;;;;5062093;28;20117;-59
2021/05/13 03:21:06;;;;;;;0.20;0.20;;;24.50;43.50;;;;;;5058999;28;20131;-59
2021/05/13 03:23:54;;;;;;;1.35;0.50;;;24.50;43.50;;;;;;5057297;28;20070;-59
2021/05/13 03:26:37;;;;;;;0.20;0.20;;;24.40;43.40;;;;;;5060945;28;20044;-58
2021/05/13 03:29:05;;;;;;;0.20;0.20;;;24.40;43.50;;;;;;5063266;28;20049;-59
2021/05/13 03:31:33;;;;;;;0.65;0.30;;;24.40;43.40;;;;;;5065484;28;20076;-60
2021/05/13 03:34:00;;;;;;;0.20;0.20;;;24.40;43.40;;;;;;5066469;28;20135;-59
2021/05/13 03:36:31;;;;;;;0.25;0.25;;;24.40;43.40;;;;;;5065255;28;20051;-60
2021/05/13 03:38:59;;;;;;;0.30;0.30;;;24.40;43.40;;;;;;5066000;28;20055;-60
2021/05/13 03:41:26;;;;;;;0.17;0.17;;;24.50;43.50;;;;;;5048218;28;20045;-61
2021/05/13 03:43:53;;;;;;;0.45;0.13;;;24.40;43.40;;;;;;5046447;28;20067;-60
2021/05/13 03:46:20;;;;;;;0.40;0.40;;;24.40;43.50;;;;;;5045041;28;20048;-60
2021/05/13 03:48:48;;;;;;;0.28;0.28;;;24.40;43.40;;;;;;5049594;28;20053;-60
2021/05/13 03:51:16;;;;;;;0.20;0.20;;;24.50;43.40;;;;;;5054896;28;20487;-59
2021/05/13 03:53:44;;;;;;;0.22;0.20;;;24.50;43.40;;;;;;5053833;28;20040;-59
2021/05/13 03:56:12;;;;;;;0.20;0.20;;;24.50;43.40;;;;;;5056201;28;20040;-59
2021/05/13 03:58:49;;;;;;;0.20;0.20;;;24.50;43.40;;;;;;5053810;28;20044;-59
2021/05/13 04:01:30;;;;;;;0.30;0.30;;;24.50;43.40;;;;;;5034604;28;20057;-59
2021/05/13 04:03:58;;;;;;;0.30;0.30;;;24.50;43.40;;;;;;5045018;28;20045;-59
2021/05/13 04:06:25;;;;;;;0.15;0.15;;;24.50;43.30;;;;;;5038847;28;20051;-59
2021/05/13 04:08:52;;;;;;;0.50;0.50;;;24.50;43.30;;;;;;5039052;28;20460;-59
2021/05/13 04:11:19;;;;;;;0.65;0.20;;;24.50;43.30;;;;;;5037558;28;20059;-59
2021/05/13 04:13:47;;;;;;;0.28;0.20;;;24.50;43.30;;;;;;5037627;28;20573;-60
2021/05/13 04:16:23;;;;;;;0.30;0.30;;;24.50;43.30;;;;;;5037708;28;20102;-59
2021/05/13 04:18:51;;;;;;;0.38;0.20;;;24.50;43.30;;;;;;5033735;28;20052;-59
2021/05/13 04:21:18;;;;;;;0.30;0.30;;;24.50;43.30;;;;;;5039964;28;20183;-59
2021/05/13 04:23:45;;;;;;;0.10;0.10;;;24.50;43.20;;;;;;5040765;28;20072;-59
2021/05/13 04:26:12;;;;;;;0.40;0.40;;;24.50;43.20;;;;;;5044965;28;20127;-58
2021/05/13 04:28:40;;;;;;;0.20;0.20;;;24.50;43.20;;;;;;5042427;28;20490;-61
2021/05/13 04:31:07;;;;;;;0.30;0.30;;;24.50;43.10;;;;;;5037845;28;20305;-59
2021/05/13 04:33:34;;;;;;;0.30;0.30;;;24.50;43.10;;;;;;5039284;28;20053;-59
2021/05/13 04:36:02;;;;;;;0.30;0.30;;;24.50;43.10;;;;;;5043506;28;20206;-58
2021/05/13 04:38:30;;;;;;;0.50;0.50;;;24.50;43.10;;;;;;5038220;28;20409;-59
2021/05/13 04:40:58;;;;;;;0.22;0.22;;;24.60;43.10;;;;;;5038341;28;20141;-59
2021/05/13 04:43:35;;;;;;;0.25;0.25;;;24.50;43.00;;;;;;5038032;28;20665;-58
2021/05/13 04:46:02;;;;;;;1.17;0.30;;;24.60;43.00;;;;;;5032030;28;20049;-59
2021/05/13 04:48:39;;;;;;;0.22;0.22;;;24.60;43.00;;;;;;5034586;28;20056;-59
2021/05/13 04:51:06;;;;;;;0.75;0.40;;;24.70;42.90;;;;;;5035282;28;20128;-57
2021/05/13 04:53:34;;;;;;;0.30;0.30;;;24.70;42.80;;;;;;5034460;28;20452;-60
2021/05/13 04:56:01;;;;;;;0.30;0.30;;;24.70;42.70;;;;;;5038549;28;20050;-59
2021/05/13 04:58:28;;;;;;;0.22;0.20;;;24.80;42.80;;;;;;5035639;28;20498;-59
2021/05/13 05:00:55;;;;;;;0.43;0.30;;;24.80;42.70;;;;;;5027638;28;20053;-60
2021/05/13 05:03:41;;;;;;;0.68;0.38;;;24.80;42.60;;;;;;5035939;28;20060;-58
2021/05/13 05:06:12;;;;;;;0.30;0.30;;;24.90;42.50;;;;;;5034986;28;20187;-57
2021/05/13 05:08:39;;;;;;;0.40;0.40;;;24.90;42.50;;;;;;5041499;28;20076;-58
2021/05/13 05:11:08;;;;;;;0.40;0.40;;;24.80;42.50;;;;;;5037057;28;20051;-57
2021/05/13 05:13:35;;;;;;;0.47;0.47;;;24.80;42.70;;;;;;5042400;28;20045;-59
2021/05/13 05:16:03;;;;;;;0.30;0.30;;;24.70;42.80;;;;;;5039525;28;20124;-58
2021/05/13 05:18:30;;;;;;;0.30;0.30;;;24.70;42.90;;;;;;5046906;28;20151;-58
2021/05/13 05:20:58;;;;;;;0.43;0.43;;;24.60;43.00;;;;;;5035171;28;20060;-58
2021/05/13 05:23:27;;;;;;;0.30;0.30;;;24.50;43.20;;;;;;5047212;28;20056;-57
2021/05/13 05:25:56;;;;;;;0.50;0.50;;;24.40;43.50;;;;;;5037838;28;20128;-59
2021/05/13 05:28:24;;;;;;;1.00;0.40;;;24.30;43.80;;;;;;5040632;28;20110;-58
2021/05/13 05:30:51;;;;;;;0.57;0.57;;;24.20;44.20;;;;;;5041903;28;20045;-58
2021/05/13 05:33:19;;;;;;;0.73;0.73;;;24.00;44.50;;;;;;5039736;28;20500;-57
2021/05/13 05:35:47;;;;;;;0.40;0.40;;;24.00;44.90;;;;;;5033427;28;20102;-58
2021/05/13 05:38:14;;;;;;;0.40;0.40;;;24.00;44.90;;;;;;5035428;28;20045;-59
2021/05/13 05:40:41;;;;;;;0.65;0.65;;;24.10;44.80;;;;;;5034747;28;20137;-59
2021/05/13 05:43:08;;;;;;;0.70;0.70;;;24.20;44.60;;;;;;5033562;28;20045;-59
2021/05/13 05:45:35;;;;;;;0.75;0.75;;;24.30;44.40;;;;;;5032862;28;20061;-61
2021/05/13 05:48:04;;;;;;;0.80;0.75;;;24.40;44.10;;;;;;5036830;28;20128;-61
2021/05/13 05:50:34;;;;;;;0.57;0.57;;;24.50;43.90;;;;;;5029980;28;20080;-59
2021/05/13 05:53:02;;;;;;;1.13;0.90;;;24.60;43.60;;;;;;5028188;28;20990;-60
2021/05/13 05:55:31;;;;;;;0.70;0.70;;;24.70;43.50;;;;;;5029076;28;20136;-63
2021/05/13 05:57:59;;;;;;;3.05;1.08;;;24.80;43.40;;;;;;5033685;28;20041;-63
2021/05/13 06:00:27;;;;;;;2.25;1.20;;;24.90;43.30;;;;;;5025980;28;20041;-63
2021/05/13 06:02:55;;;;;;;0.70;0.70;;;24.90;43.10;;;;;;5036426;28;20041;-62
2021/05/13 06:05:24;;;;;;;3.03;1.02;;;25.00;42.90;;;;;;5035034;28;20037;-62
2021/05/13 06:07:51;;;;;;;3.05;1.17;;;25.10;42.80;;;;;;5025005;28;20077;-62
2021/05/13 06:10:19;;;;;;;1.23;1.10;;;25.10;42.60;;;;;;5029713;28;20045;-60
2021/05/13 06:12:48;;;;;;;3.13;1.63;;;25.20;42.60;;;;;;5033201;28;20053;-60
2021/05/13 06:15:18;;;;;;;4.03;1.77;;;25.30;42.70;;;;;;5031447;28;20049;-61
2021/05/13 06:17:45;;;;;;;1.88;1.73;;;25.40;42.60;;;;;;5034107;28;20460;-63
2021/05/13 06:20:28;;;;;;;3.28;1.52;;;25.40;42.50;;;;;;5032831;28;20173;-60
2021/05/13 06:22:55;;;;;;;3.53;1.10;;;25.50;42.50;;;;;;5031480;28;20037;-59
2021/05/13 06:25:25;;;;;;;2.08;1.50;;;25.60;42.50;;;;;;5034173;28;20221;-61
2021/05/13 06:27:53;;;;;;;4.45;1.60;;;25.60;42.30;;;;;;5026936;28;20037;-61
2021/05/13 06:30:20;;;;;;;1.48;1.38;;;25.60;42.20;;;;;;5033964;28;20140;-63
2021/05/13 06:32:48;;;;;;;2.95;1.77;;;25.70;42.20;;;;;;5032937;28;20135;-63
2021/05/13 06:35:17;;;;;;;4.90;2.40;;;25.80;41.90;;;;;;5034029;28;20920;-62
2021/05/13 06:37:45;;;;;;;2.95;1.42;;;25.80;41.80;;;;;;5036288;28;20476;-63
2021/05/13 06:40:13;;;;;;;3.35;1.83;;;25.90;41.80;;;;;;5030178;28;20057;-62
2021/05/13 06:42:41;;;;;;;1.65;1.40;;;25.90;41.90;;;;;;5027818;28;20060;-66
2021/05/13 06:45:10;;;;;;;2.47;1.80;;;25.90;42.40;;;;;;5033497;28;20214;-65
2021/05/13 06:47:39;;;;;;;2.38;1.67;;;25.90;41.70;;;;;;5032125;28;20426;-63
2021/05/13 06:50:07;;;;;;;3.65;1.40;;;26.00;41.60;;;;;;5029106;28;20045;-64
2021/05/13 06:52:35;;;;;;;6.00;1.83;;;26.00;41.70;;;;;;5028588;28;20052;-60
2021/05/13 06:55:04;;;;;;;2.08;1.48;;;26.00;41.60;;;;;;5031854;28;20045;-60
2021/05/13 06:57:32;;;;;;;2.55;1.50;;;26.10;41.50;;;;;;5030500;28;20053;-61
2021/05/13 06:59:59;;;;;;;2.72;1.70;;;26.10;41.30;;;;;;5029188;28;20081;-61
2021/05/13 07:02:26;;;;;;;2.10;1.67;;;26.20;41.30;;;;;;5027048;28;20140;-61
2021/05/13 07:04:53;;;;;;;1.90;1.60;;;26.20;41.20;;;;;;5032045;28;20136;-61
2021/05/13 07:07:26;;;;;;;5.10;1.85;;;26.20;41.20;;;;;;5030289;28;20490;-60
2021/05/13 07:09:53;;;;;;;6.43;1.80;;;26.30;41.10;;;;;;5031079;28;20119;-60
2021/05/13 07:12:21;;;;;;;1.98;1.58;;;26.30;41.10;;;;;;5033951;28;20106;-62
2021/05/13 07:14:48;;;;;;;1.95;1.63;;;26.30;40.90;;;;;;5030273;28;20099;-63
2021/05/13 07:17:15;;;;;;;2.58;1.50;;;26.30;40.80;;;;;;5039217;28;20572;-63
2021/05/13 07:19:42;;;;;;;1.27;1.15;;;26.40;40.60;;;;;;5028261;28;20055;-59
2021/05/13 07:22:10;;;;;;;3.47;1.00;;;26.40;40.50;;;;;;5028216;28;20044;-60
2021/05/13 07:24:38;;;;;;;1.52;1.02;;;26.40;40.50;;;;;;5032222;28;20041;-63
2021/05/13 07:27:09;;;;;;;2.00;1.15;;;26.40;40.60;;;;;;5030293;28;20088;-64
2021/05/13 07:29:37;;;;;;;3.85;1.20;;;26.40;40.60;;;;;;5032927;28;20052;-62
2021/05/13 07:32:05;;;;;;;2.80;1.23;;;26.30;40.50;;;;;;5030636;28;20144;-62
2021/05/13 07:34:34;;;;;;;2.78;1.08;;;26.30;40.50;;;;;;5037730;28;20044;-63
2021/05/13 07:37:02;;;;;;;5.93;0.98;;;26.30;40.50;;;;;;5031721;28;20080;-62
2021/05/13 07:39:29;;;;;;;4.25;1.60;;;26.30;40.50;;;;;;5034169;28;20044;-60
2021/05/13 07:41:56;;;;;;;3.70;1.10;;;26.30;40.30;;;;;;5029805;28;20087;-62
2021/05/13 07:44:25;;;;;;;5.10;1.33;;;26.30;40.10;;;;;;5028756;28;20227;-60
2021/05/13 07:46:55;;;;;;;2.03;0.90;;;26.30;40.40;;;;;;5031430;28;20080;-63
2021/05/13 07:49:23;;;;;;;0.98;0.80;;;26.30;40.40;;;;;;5033274;28;20067;-63
2021/05/13 07:51:50;;;;;;;1.92;0.90;;;26.30;40.40;;;;;;5032419;28;20583;-66
2021/05/13 07:54:18;;;;;;;8.15;1.48;;;26.40;40.40;;;;;;5047507;28;20394;-66
2021/05/13 07:56:47;;;;;;;1.63;0.82;;;26.40;40.40;;;;;;5033044;28;20073;-66
2021/05/13 07:59:14;;;;;;;4.88;1.10;;;26.40;40.40;;;;;;5027167;28;20048;-66
2021/05/13 08:01:41;;;;;;;2.92;1.10;;;26.20;40.70;;;;;;5021171;28;20132;-64
2021/05/13 08:04:08;;;;;;;1.67;1.13;;;25.90;41.10;;;;;;5027873;28;20061;-62
2021/05/13 08:06:35;;;;;;;2.75;0.80;;;25.60;42.10;;;;;;5031454;28;20053;-63
2021/05/13 08:09:03;;;;;;;0.90;0.82;;;25.40;42.60;;;;;;5033985;28;20163;-63
2021/05/13 08:11:31;;;;;;;2.38;0.70;;;25.10;43.00;;;;;;5034579;28;20046;-63
2021/05/13 08:13:58;;;;;;;3.75;0.88;;;25.10;43.00;;;;;;5030140;28;20137;-62
2021/05/13 08:16:25;;;;;;;0.80;0.77;;;25.10;42.80;;;;;;5028279;28;20486;-61
2021/05/13 08:18:53;;;;;;;1.15;0.75;;;25.20;42.50;;;;;;5028949;28;20132;-60
2021/05/13 08:21:20;;;;;;;2.22;0.65;;;25.30;42.40;;;;;;5028951;28;20151;-61
2021/05/13 08:23:48;;;;;;;1.45;0.90;;;25.40;42.30;;;;;;5025858;28;20391;-63
2021/05/13 08:26:15;;;;;;;1.63;0.70;;;25.50;42.10;;;;;;5026775;28;20049;-63
2021/05/13 08:28:42;;;;;;;1.05;0.65;;;25.60;41.60;;;;;;5032269;28;20399;-63
2021/05/13 08:31:09;;;;;;;1.85;0.50;;;25.60;41.30;;;;;;5030019;28;20124;-62
2021/05/13 08:33:36;;;;;;;1.40;0.70;;;25.70;41.10;;;;;;5029676;28;20564;-62
2021/05/13 08:36:04;;;;;;;2.90;0.63;;;25.70;41.20;;;;;;5027208;28;20128;-61
2021/05/13 08:38:31;;;;;;;1.75;0.80;;;25.70;41.10;;;;;;5030461;28;20400;-62
2021/05/13 08:40:59;;;;;;;1.38;0.50;;;25.70;41.10;;;;;;5028918;28;20107;-60
2021/05/13 08:43:28;;;;;;;2.92;0.98;;;25.70;41.10;;;;;;5028810;28;20060;-61
2021/05/13 08:45:57;;;;;;;1.70;0.93;;;25.80;41.10;;;;;;5028528;28;20057;-60
2021/05/13 08:48:28;;;;;;;2.35;0.60;;;25.80;40.90;;;;;;5029541;28;20298;-61
2021/05/13 08:50:56;;;;;;;2.88;0.50;;;25.80;40.90;;;;;;5031011;28;20068;-61
2021/05/13 08:53:23;;;;;;;1.30;0.75;;;25.90;40.80;;;;;;5028716;28;20049;-62
2021/05/13 08:55:50;;;;;;;1.80;0.60;;;25.90;40.70;;;;;;5031905;28;20076;-63
2021/05/13 08:58:18;;;;;;;2.70;0.50;;;25.90;40.60;;;;;;5028378;28;20111;-63
2021/05/13 09:00:54;;;;;;;1.65;0.80;;;25.90;40.50;;;;;;5033003;28;20053;-63
2021/05/13 09:03:36;;;;;;;1.13;0.40;;;25.90;40.40;;;;;;5025242;28;20053;-63
2021/05/13 09:06:05;;;;;;;2.88;0.60;;;25.90;40.40;;;;;;5029954;28;20103;-63
2021/05/13 09:08:33;;;;;;;1.10;0.40;;;26.00;40.40;;;;;;5028767;28;20481;-61
2021/05/13 09:11:14;;;;;;;1.17;0.52;;;26.00;40.40;;;;;;5037297;28;20049;-61
2021/05/13 09:13:42;;;;;;;1.50;0.93;;;26.00;40.20;;;;;;5035979;28;20076;-61
2021/05/13 09:16:28;;;;;;;2.35;0.77;;;26.10;40.20;;;;;;5031110;28;20044;-61
2021/05/13 09:18:56;;;;;;;4.25;1.00;;;26.10;40.20;;;;;;5026802;28;20053;-60
2021/05/13 09:21:25;;;;;;;4.72;0.73;;;26.10;40.20;;;;;;5031129;28;20747;-63
2021/05/13 09:23:53;;;;;;;1.45;0.52;;;26.10;40.10;;;;;;5029544;28;20047;-64
2021/05/13 09:26:21;;;;;;;0.85;0.65;;;26.10;40.10;;;;;;5034322;28;20059;-62
2021/05/13 09:29:07;;;;;;;2.35;0.82;;;26.20;40.10;;;;;;5031506;28;20092;-61
2021/05/13 09:31:40;;;;;;;3.72;0.60;;;26.20;40.00;;;;;;5025986;28;20111;-61
2021/05/13 09:34:10;;;;;;;2.45;0.88;;;26.20;40.00;;;;;;5029429;28;20076;-61
2021/05/13 09:36:38;;;;;;;1.80;0.67;;;26.20;40.00;;;;;;5032189;28;20045;-62
2021/05/13 09:39:25;;;;;;;3.95;1.10;;;26.20;40.10;;;;;;5034417;28;20080;-63
2021/05/13 09:42:05;;;;;;;1.83;0.93;;;26.20;39.90;;;;;;5027160;28;20132;-63
2021/05/13 09:44:41;;;;;;;2.08;0.50;;;26.20;39.90;;;;;;5032322;28;20768;-62
2021/05/13 09:47:20;;;;;;;4.88;0.57;;;26.20;39.80;;;;;;5034215;28;20056;-62
2021/05/13 09:50:05;;;;;;;0.85;0.63;;;26.20;39.90;;;;;;5041991;28;20072;-62
2021/05/13 09:52:53;;;;;;;2.70;0.65;;;26.20;39.90;;;;;;5030620;28;20413;-61
2021/05/13 09:55:27;;;;;;;2.35;0.40;;;26.20;40.00;;;;;;5031321;28;20111;-61
2021/05/13 09:58:07;;;;;;;0.85;0.57;;;26.20;40.10;;;;;;5036584;28;20041;-61
2021/05/13 10:00:43;;;;;;;0.40;0.40;;;26.20;40.10;;;;;;5029905;28;20048;-61
2021/05/13 10:03:19;;;;;;;1.60;0.40;;;26.20;40.00;;;;;;5024511;28;20155;-62
2021/05/13 10:05:52;;;;;;;2.63;0.50;;;26.20;39.90;;;;;;5037123;28;20037;-62
2021/05/13 10:08:21;;;;;;;1.42;0.68;;;26.20;39.90;;;;;;5034868;28;20080;-62
2021/05/13 10:10:49;;;;;;;1.40;0.52;;;26.20;39.90;;;;;;5033971;28;20045;-61
2021/05/13 10:13:19;;;;;;;3.45;0.57;;;26.20;39.90;;;;;;5032289;28;20056;-61
2021/05/13 10:15:48;;;;;;;0.85;0.40;;;26.20;39.90;;;;;;5038923;28;20055;-60
2021/05/13 10:18:26;;;;;;;2.17;0.68;;;26.20;40.50;;;;;;5031765;28;20144;-63
2021/05/13 10:21:04;;;;;;;1.25;0.50;;;26.20;40.10;;;;;;5032853;28;20045;-62
2021/05/13 10:23:35;;;;;;;1.85;0.50;;;26.30;40.10;;;;;;5034818;28;20106;-63
2021/05/13 10:26:03;;;;;;;1.70;0.70;;;26.30;40.00;;;;;;5035955;28;20072;-61
2021/05/13 10:28:32;;;;;;;1.25;0.35;;;26.40;40.00;;;;;;5029065;28;20095;-62
2021/05/13 10:31:06;;;;;;;2.17;0.55;;;26.40;40.00;;;;;;5034834;28;20131;-63
2021/05/13 10:33:47;;;;;;;1.15;0.60;;;26.40;40.10;;;;;;5033470;28;20048;-62
2021/05/13 10:36:20;;;;;;;0.77;0.73;;;26.50;39.90;;;;;;5033547;28;20057;-60
2021/05/13 10:38:54;;;;;;;5.50;0.60;;;26.50;39.90;;;;;;5033871;28;20051;-60
2021/05/13 10:41:34;;;;;;;1.20;0.40;;;26.50;39.80;;;;;;5033224;28;20056;-60
2021/05/13 10:44:33;;;;;;;1.85;0.63;;;26.50;39.70;;;;;;5032672;28;20041;-59
2021/05/13 10:47:00;;;;;;;1.40;0.60;;;26.60;39.80;;;;;;5032059;28;20046;-59
2021/05/13 10:49:28;;;;;;;0.75;0.45;;;26.60;39.80;;;;;;5028657;28;20087;-60
2021/05/13 10:52:16;;;;;;;2.25;0.50;;;26.60;39.70;;;;;;5031643;28;20080;-60
2021/05/13 10:54:46;;;;;;;0.82;0.40;;;26.60;39.60;;;;;;5030533;28;20135;-62
2021/05/13 10:57:20;;;;;;;0.38;0.35;;;26.40;39.90;;;;;;5032575;28;20102;-62
2021/05/13 11:00:20;;;;;;;2.13;0.77;;;26.10;40.30;;;;;;5036138;28;20087;-63
2021/05/13 11:02:49;;;;;;;2.17;0.20;;;25.70;41.20;;;;;;5019583;28;20156;-61
2021/05/13 11:05:40;;;;;;;1.40;0.45;;;25.40;41.80;;;;;;5033043;28;20048;-61
2021/05/13 11:08:27;;;;;;;1.90;0.30;;;25.10;42.30;;;;;;5032582;28;20042;-61
2021/05/13 11:10:58;;;;;;;0.30;0.30;;;25.00;42.30;;;;;;5041997;28;20048;-60
2021/05/13 11:13:47;;;;;;;0.60;0.52;;;25.00;42.20;;;;;;5029996;28;20056;-61
2021/05/13 11:16:56;;;;;;;1.02;0.40;;;25.10;42.30;;;;;;5031050;28;20095;-60
2021/05/13 11:19:25;;;;;;;3.83;0.30;;;25.20;42.10;;;;;;5030128;28;20054;-60
2021/05/13 11:22:03;;;;;;;1.10;0.40;;;25.30;41.90;;;;;;5033567;28;20084;-62
2021/05/13 11:24:39;;;;;;;1.75;0.45;;;25.40;41.90;;;;;;5031374;28;20138;-60
2021/05/13 11:27:08;;;;;;;1.73;0.30;;;25.40;42.10;;;;;;5027575;28;20053;-60
2021/05/13 11:29:50;;;;;;;1.38;0.50;;;25.50;42.20;;;;;;5028639;28;20091;-60
2021/05/13 11:32:19;;;;;;;3.63;0.40;;;25.50;42.10;;;;;;5026960;28;20053;-60
2021/05/13 11:34:47;;;;;;;1.02;0.40;;;25.60;42.40;;;;;;5030468;28;20049;-60
2021/05/13 11:37:38;;;;;;;4.03;0.45;;;25.60;43.10;;;;;;5032724;28;20044;-60
2021/05/13 11:40:28;;;;;;;2.28;0.30;;;25.50;43.10;;;;;;5027732;28;20041;-58
2021/05/13 11:43:23;;;;;;;4.18;0.32;;;25.40;43.90;;;;;;5027733;28;20099;-60
2021/05/13 11:45:53;;;;;;;1.27;0.73;;;25.30;44.50;;;;;;5031809;28;20107;-59
2021/05/13 11:48:37;;;;;;;3.13;0.40;;;25.20;44.90;;;;;;5029714;28;20060;-59
2021/05/13 11:51:13;;;;;;;0.95;0.43;;;25.10;44.90;;;;;;5030273;28;20158;-58
2021/05/13 11:53:42;;;;;;;1.23;0.38;;;25.10;45.00;;;;;;5031215;28;21240;-60
2021/05/13 11:56:11;;;;;;;1.15;0.30;;;25.10;44.90;;;;;;5031031;28;20046;-60
2021/05/13 11:58:53;;;;;;;0.95;0.40;;;25.10;44.60;;;;;;5031751;28;20099;-60
2021/05/13 12:01:35;;;;;;;0.95;0.35;;;25.20;44.30;;;;;;5035230;28;20534;-60
2021/05/13 12:04:13;;;;;;;0.90;0.30;;;25.30;44.00;;;;;;5023484;28;20183;-61
2021/05/13 12:06:57;;;;;;;4.15;0.63;;;25.40;43.90;;;;;;5032719;28;20128;-62
2021/05/13 12:09:28;;;;;;;0.68;0.50;;;25.40;43.90;;;;;;5027495;28;20045;-59
2021/05/13 12:12:04;;;;;;;2.88;0.30;;;25.50;44.10;;;;;;5027691;28;20420;-59
2021/05/13 12:14:33;;;;;;;0.60;0.60;;;25.50;43.80;;;;;;5031582;28;20702;-58
2021/05/13 12:17:11;;;;;;;0.45;0.40;;;25.60;43.80;;;;;;5029960;28;20129;-57
2021/05/13 12:19:44;;;;;;;0.57;0.50;;;25.60;43.40;;;;;;5027194;28;20080;-60
2021/05/13 12:22:14;;;;;;;2.35;0.30;;;25.70;43.10;;;;;;5029057;28;20498;-60
2021/05/13 12:24:48;;;;;;;1.88;0.35;;;25.80;42.80;;;;;;5025403;28;20148;-59
2021/05/13 12:27:18;;;;;;;1.83;0.28;;;25.90;42.40;;;;;;5029525;28;20071;-59
2021/05/13 12:29:48;;;;;;;1.30;0.25;;;25.90;42.00;;;;;;5029343;28;20048;-61
2021/05/13 12:32:32;;;;;;;0.98;0.60;;;26.00;41.80;;;;;;5026419;28;20499;-60
2021/05/13 12:35:00;;;;;;;0.43;0.30;;;26.00;41.50;;;;;;5031662;28;20092;-59
2021/05/13 12:37:27;;;;;;;0.65;0.20;;;26.10;41.20;;;;;;5026708;28;20076;-60
2021/05/13 12:39:54;;;;;;;0.43;0.30;;;26.20;41.10;;;;;;5030145;28;20516;-60
2021/05/13 12:42:31;;;;;;;0.17;0.17;;;26.20;40.90;;;;;;5028208;28;20135;-60
2021/05/13 12:45:19;;;;;;;0.40;0.30;;;26.20;40.80;;;;;;5025184;28;20578;-60
2021/05/13 12:47:56;;;;;;;2.35;0.47;;;26.30;40.70;;;;;;5026339;28;20049;-62
2021/05/13 12:50:26;;;;;;;0.50;0.20;;;26.30;40.60;;;;;;5029045;28;20464;-60
2021/05/13 12:53:14;;;;;;;2.53;0.23;;;26.30;40.60;;;;;;5026802;28;20059;-60
2021/05/13 12:55:43;;;;;;;2.60;0.30;;;26.30;40.60;;;;;;5027744;28;20131;-59
2021/05/13 12:58:13;;;;;;;0.20;0.17;;;26.30;40.70;;;;;;5026521;28;20081;-61
2021/05/13 13:00:43;;;;;;;0.40;0.30;;;26.30;40.80;;;;;;5024820;28;20091;-59
2021/05/13 13:03:15;;;;;;;2.38;0.20;;;26.20;40.90;;;;;;5024174;28;20040;-59
2021/05/13 13:05:43;;;;;;;1.05;0.22;;;26.20;41.10;;;;;;5035140;28;20044;-60
2021/05/13 13:08:44;;;;;;;1.30;0.30;;;26.20;41.00;;;;;;5051175;28;20099;-60